logo
Search for airport 
image banner adimage banner adimage banner ad
image banner ad

LZZI - Zilina

Located in Dolny Hricov, Slovakia

ICAO - LZZI, IATA - ILZ

Data provided by Airmate  

General information

Coordinates: N49°14'0" E18°36'49"
Elevation is 1020 feet MSL.
Magnetic variation is 5.2804° East
View others Airports in Žilina

Operational data

Special qualification required
Current time UTC:
Current local time:
Weather
METAR: LZZI 170500Z VRB01KT 9999 -RA BKN012 OVC021 05/04 Q1002
TAF: TAF LZZI 170215Z 1703/1712 VRB02KT 9999 BKN025 OVC032 PROB40 TEMPO 1703/1710 -RA BKN012 BECMG 1707/1709 01007KT
View NOTAMs / SUP AIP / TFR affecting this airport [VIEW]
Communications frequencies: [VIEW]

Runways:

RWY identifierQFULength (ft)Width (ft)SurfaceLDA (ft)
0665°377398CONC+ASPH3773
24245°377398CONC+ASPH3773
06G65°3707148GRASS3707
24G245°3707148GRASS3707

Airport contact information

Address: Dolny Hricov Slovakia

Other aviation service providers

Flight schools

Letecké Výcvikové A Vzdelávacie Centrum Žilina

Letecké Výcvikové A Vzdelávacie Centrum Žilina
lvvc@lvvc.uniza.sk+421911306584

Aviation club (not for profit)

Aerofatra

Aerofatra

Aeroklub Žilina

Aeroklub Žilina

Stredná Odborná Škola Dopravná

Stredná Odborná Škola Dopravná
zssd@nextra.sk+421434282539

Satellite view of LZZI